Time;durP1;ratioP1;P1;durP2;ratioP2;P2;SDS_P1;SDS_P2;PMS_P1;PMS_P2;Temp;Humidity;BMP_temperature;BMP_pressure;BME280_temperature;BME280_humidity;BME280_pressure;Samples;Min_cycle;Max_cycle;Signal;HPM_P1;HPM_P2
2022/12/14 00:01:23;;;;;;;39.13;21.73;;;;;;;-0.86;100.00;99531.94;5028170;28;20037;-79
2022/12/14 00:03:49;;;;;;;26.48;13.77;;;;;;;-0.90;100.00;99539.91;5024101;28;20033;-79
2022/12/14 00:06:19;;;;;;;25.02;14.30;;;;;;;-0.90;100.00;99539.06;5017741;28;20029;-79
2022/12/14 00:08:48;;;;;;;34.67;18.40;;;;;;;-0.88;100.00;99542.41;5029190;28;20045;-79
2022/12/14 00:11:14;;;;;;;19.75;11.63;;;;;;;-0.84;100.00;99543.88;5010052;28;20030;-79
2022/12/14 00:13:40;;;;;;;27.95;15.07;;;;;;;-0.77;100.00;99533.97;5009138;28;20120;-79
2022/12/14 00:16:09;;;;;;;42.38;19.05;;;;;;;-0.77;100.00;99534.81;5026712;28;20048;-79
2022/12/14 00:18:36;;;;;;;26.75;12.98;;;;;;;-0.81;100.00;99528.13;5008990;28;20628;-79
2022/12/14 00:21:08;;;;;;;28.38;14.50;;;;;;;-0.73;100.00;99529.44;5027001;28;20037;-79
2022/12/14 00:23:36;;;;;;;23.05;12.98;;;;;;;-0.78;100.00;99527.94;5008489;28;20041;-79
2022/12/14 00:26:14;;;;;;;29.40;15.32;;;;;;;-0.77;100.00;99529.63;5007214;28;20044;-79
2022/12/14 00:28:41;;;;;;;20.73;12.00;;;;;;;-0.80;100.00;99535.00;5024362;28;20052;-79
2022/12/14 00:31:08;;;;;;;25.33;13.32;;;;;;;-0.77;100.00;99539.16;5004262;28;20569;-79
2022/12/14 00:33:34;;;;;;;18.92;8.43;;;;;;;-0.80;100.00;99545.38;4979133;28;20489;-80
2022/12/14 00:36:00;;;;;;;36.92;21.95;;;;;;;-0.76;100.00;99546.84;5030750;28;20531;-79
2022/12/14 00:38:26;;;;;;;40.35;18.48;;;;;;;-0.74;100.00;99549.34;5026635;28;20044;-78
2022/12/14 00:40:53;;;;;;;22.02;9.48;;;;;;;-0.77;100.00;99539.16;5009344;28;20068;-79
2022/12/14 00:43:20;;;;;;;30.80;14.43;;;;;;;-0.77;100.00;99541.75;5027981;28;20103;-79
2022/12/14 00:45:46;;;;;;;36.47;17.67;;;;;;;-0.73;100.00;99539.81;5030112;28;20033;-79
2022/12/14 00:48:13;;;;;;;29.13;16.48;;;;;;;-0.76;100.00;99543.41;5027226;28;20036;-79
2022/12/14 00:50:39;;;;;;;27.58;12.80;;;;;;;-0.78;100.00;99540.09;5026518;28;20129;-79
2022/12/14 00:53:05;;;;;;;26.38;14.75;;;;;;;-0.76;100.00;99549.44;5007370;28;20814;-79
2022/12/14 00:55:39;;;;;;;19.15;10.57;;;;;;;-0.80;100.00;99540.19;5012372;28;20568;-79
2022/12/14 00:58:06;;;;;;;17.40;9.82;;;;;;;-0.80;100.00;99541.94;5025437;28;20034;-79
2022/12/14 01:00:32;;;;;;;26.83;14.73;;;;;;;-0.80;100.00;99540.19;5004414;28;20152;-79
2022/12/14 01:02:58;;;;;;;21.25;11.45;;;;;;;-0.84;100.00;99556.00;5035683;28;20025;-79
2022/12/14 01:05:24;;;;;;;30.30;15.32;;;;;;;-0.84;100.00;99554.25;5001005;28;20030;-79
2022/12/14 01:07:50;;;;;;;23.27;13.45;;;;;;;-0.88;100.00;99561.38;5026345;28;20108;-79
2022/12/14 01:10:16;;;;;;;23.88;12.93;;;;;;;-0.92;100.00;99553.88;5027195;28;20149;-79
2022/12/14 01:12:42;;;;;;;25.13;14.43;;;;;;;-0.92;100.00;99559.91;5006455;28;20398;-79
2022/12/14 01:15:08;;;;;;;11.80;7.25;;;;;;;-0.95;100.00;99561.84;5007294;28;20033;-79
2022/12/14 01:17:34;;;;;;;16.20;9.65;;;;;;;-1.00;100.00;99552.59;5009018;28;20038;-79
2022/12/14 01:20:00;;;;;;;22.63;14.27;;;;;;;-1.00;100.00;99559.53;5020974;28;20045;-79
2022/12/14 01:22:26;;;;;;;16.50;11.02;;;;;;;-1.03;100.00;99551.94;5028438;28;20056;-79
2022/12/14 01:24:52;;;;;;;14.27;8.45;;;;;;;-1.09;100.00;99563.53;5032170;28;20063;-80
2022/12/14 01:27:18;;;;;;;14.55;9.30;;;;;;;-1.14;100.00;99555.16;5010677;28;20033;-79
2022/12/14 01:29:44;;;;;;;23.30;13.73;;;;;;;-1.16;100.00;99565.63;5011159;28;20042;-79
2022/12/14 01:32:09;;;;;;;15.55;8.27;;;;;;;-1.23;100.00;99558.31;5040437;28;20164;-79
2022/12/14 01:34:35;;;;;;;14.95;8.45;;;;;;;-1.28;100.00;99554.25;5016104;28;20030;-79
2022/12/14 01:37:01;;;;;;;14.75;7.40;;;;;;;-1.29;100.00;99551.75;5007712;28;20037;-79
2022/12/14 01:39:27;;;;;;;16.08;9.98;;;;;;;-1.28;100.00;99561.16;5006890;28;20042;-79
2022/12/14 01:41:52;;;;;;;13.27;7.35;;;;;;;-1.32;100.00;99568.28;5028289;28;20037;-79
2022/12/14 01:44:18;;;;;;;21.67;13.00;;;;;;;-1.35;100.00;99557.28;5033377;28;20041;-79
2022/12/14 01:46:54;;;;;;;15.40;9.18;;;;;;;-1.42;100.00;99554.22;5017810;28;20034;-79
2022/12/14 01:49:30;;;;;;;9.63;5.60;;;;;;;-1.47;100.00;99562.25;5024317;28;20191;-79
2022/12/14 01:52:10;;;;;;;14.15;9.10;;;;;;;-1.49;100.00;99564.09;5022295;28;20124;-79
2022/12/14 01:54:56;;;;;;;20.08;10.85;;;;;;;-1.55;100.00;99567.88;5028705;28;20029;-79
2022/12/14 01:57:31;;;;;;;15.02;8.88;;;;;;;-1.59;100.00;99574.13;5045220;28;20052;-79
2022/12/14 01:59:58;;;;;;;21.83;12.00;;;;;;;-1.56;100.00;99570.56;5044978;28;20077;-79
2022/12/14 02:02:26;;;;;;;25.88;13.60;;;;;;;-1.59;100.00;99568.16;5002285;28;20025;-79
2022/12/14 02:04:56;;;;;;;14.23;7.80;;;;;;;-1.63;100.00;99567.47;5023040;28;20095;-79
2022/12/14 02:07:24;;;;;;;10.93;6.28;;;;;;;-1.70;100.00;99560.94;5027271;28;20402;-79
2022/12/14 02:09:54;;;;;;;17.20;8.60;;;;;;;-1.71;100.00;99557.56;5044379;28;20052;-79
2022/12/14 02:12:27;;;;;;;14.80;9.32;;;;;;;-1.67;100.00;99573.75;5007468;28;20080;-79
2022/12/14 02:14:54;;;;;;;15.82;8.30;;;;;;;-1.72;100.00;99570.59;5045504;28;20029;-79
2022/12/14 02:17:20;;;;;;;12.40;6.60;;;;;;;-1.77;100.00;99574.25;5004295;28;20095;-78
2022/12/14 02:19:48;;;;;;;14.13;9.05;;;;;;;-1.79;100.00;99570.94;5029656;28;20118;-78
2022/12/14 02:22:41;;;;;;;22.98;11.15;;;;;;;-1.75;100.00;99569.00;5011456;28;20036;-78
2022/12/14 02:25:29;;;;;;;17.45;9.82;;;;;;;-1.81;100.00;99577.97;5005696;28;20390;-82
2022/12/14 02:28:01;;;;;;;11.70;5.57;;;;;;;-1.87;100.00;99575.72;5013566;28;20107;-82
2022/12/14 02:30:33;;;;;;;10.73;4.97;;;;;;;-1.88;100.00;99571.47;5023044;28;20038;-78
2022/12/14 02:33:20;;;;;;;16.15;8.75;;;;;;;-1.88;100.00;99574.88;5027129;28;20047;-79
2022/12/14 02:35:56;;;;;;;12.02;6.57;;;;;;;-1.93;100.00;99571.72;5002882;28;20037;-81
2022/12/14 02:38:48;;;;;;;9.05;5.65;;;;;;;-1.89;100.00;99575.78;5028350;28;20035;-79
2022/12/14 02:41:39;;;;;;;13.07;7.60;;;;;;;-1.92;100.00;99577.72;5020771;28;20033;-79
2022/12/14 02:44:27;;;;;;;9.88;4.97;;;;;;;-1.97;100.00;99570.19;5020816;28;20398;-81
2022/12/14 02:47:12;;;;;;;14.98;5.72;;;;;;;-2.02;100.00;99586.00;5026566;28;20169;-80
2022/12/14 02:49:55;;;;;;;12.10;7.50;;;;;;;-1.98;100.00;99584.09;5021687;28;20520;-80
2022/12/14 02:52:43;;;;;;;11.80;7.30;;;;;;;-2.01;100.00;99584.25;5019448;28;20108;-81
2022/12/14 02:55:17;;;;;;;10.07;6.68;;;;;;;-2.03;100.00;99578.31;5028144;28;20076;-79
2022/12/14 02:58:00;;;;;;;13.48;5.15;;;;;;;-2.07;100.00;99587.19;5021686;28;20037;-80
2022/12/14 03:00:31;;;;;;;12.52;7.43;;;;;;;-2.07;100.00;99590.59;5011459;28;20102;-80
2022/12/14 03:02:58;;;;;;;12.77;6.15;;;;;;;-2.03;100.00;99588.66;5033243;28;20033;-79
2022/12/14 03:05:24;;;;;;;11.10;5.95;;;;;;;-2.08;100.00;99593.25;5028793;28;20439;-78
2022/12/14 03:07:54;;;;;;;11.75;6.60;;;;;;;-2.05;100.00;99591.34;5030822;28;20037;-80
2022/12/14 03:10:37;;;;;;;13.77;7.68;;;;;;;-2.04;100.00;99587.00;5030839;28;20040;-80
2022/12/14 03:13:20;;;;;;;10.85;6.07;;;;;;;-2.09;100.00;99587.25;5008684;28;20128;-79
2022/12/14 03:15:57;;;;;;;9.45;4.88;;;;;;;-2.15;100.00;99591.00;5047207;28;20030;-80
2022/12/14 03:18:23;;;;;;;;;;;;;;;-2.25;100.00;99595.88;5035102;28;20032;-80
2022/12/14 03:20:52;;;;;;;8.48;5.13;;;;;;;-2.20;100.00;99605.13;5021800;28;19921;-80
2022/12/14 03:23:23;;;;;;;8.95;5.03;;;;;;;-2.26;100.00;99609.72;5027797;28;20047;-78
2022/12/14 03:26:00;;;;;;;10.23;5.28;;;;;;;-2.26;100.00;99614.03;5024386;28;20393;-80
2022/12/14 03:28:37;;;;;;;9.00;5.30;;;;;;;-2.29;100.00;99601.28;5048955;28;20087;-80
2022/12/14 03:31:13;;;;;;;9.57;4.70;;;;;;;-2.29;100.00;99604.72;5014425;28;20459;-80
2022/12/14 03:33:41;;;;;;;5.68;4.20;;;;;;;-2.31;100.00;99613.47;5029071;28;20099;-80
2022/12/14 03:36:10;;;;;;;12.38;6.47;;;;;;;-2.30;100.00;99605.63;5028096;28;20398;-80
2022/12/14 03:38:42;;;;;;;6.07;3.50;;;;;;;-2.35;100.00;99601.59;4995542;28;20081;-80
2022/12/14 03:41:11;;;;;;;7.13;4.85;;;;;;;-2.33;100.00;99600.63;5007526;28;20049;-80
2022/12/14 03:44:07;;;;;;;10.23;4.90;;;;;;;-2.33;100.00;99608.38;5003609;28;20051;-81
2022/12/14 03:46:38;;;;;;;9.45;4.68;;;;;;;-2.38;100.00;99606.03;5026733;28;20128;-80
2022/12/14 03:49:15;;;;;;;7.55;4.38;;;;;;;-2.34;100.00;99606.69;5037989;28;20033;-80
2022/12/14 03:52:01;;;;;;;6.07;3.38;;;;;;;-2.34;100.00;99611.06;5023946;28;20038;-80
2022/12/14 03:54:49;;;;;;;6.95;2.72;;;;;;;-2.34;100.00;99613.66;5029136;28;20029;-80
2022/12/14 03:57:30;;;;;;;7.93;3.70;;;;;;;-2.37;100.00;99610.28;5046012;28;20040;-81
2022/12/14 04:00:08;;;;;;;7.80;4.47;;;;;;;-2.33;100.00;99618.75;5040505;28;20524;-81
2022/12/14 04:02:43;;;;;;;5.47;3.05;;;;;;;-2.33;100.00;99603.22;5028647;28;20245;-80
2022/12/14 04:05:45;;;;;;;8.10;3.53;;;;;;;-2.31;100.00;99605.72;5022940;28;20183;-80
2022/12/14 04:08:43;;;;;;;4.28;2.13;;;;;;;-2.32;100.00;99611.78;5035500;28;20059;-80
2022/12/14 04:19:55;;;;;;;5.18;2.83;;;;;;;-2.22;100.00;99592.28;5021834;28;20588;-80
2022/12/14 04:22:25;;;;;;;5.22;2.67;;;;;;;-2.16;100.00;99612.66;5005301;28;20184;-80
2022/12/14 04:29:55;;;;;;;4.63;2.83;;;;;;;-2.17;100.00;99611.00;5029262;28;20375;-80
2022/12/14 04:31:03;;;;;;;3.78;1.90;;;;;;;-2.17;100.00;99625.69;5025276;28;20052;-80
2022/12/14 04:33:46;;;;;;;5.13;2.75;;;;;;;-2.16;100.00;99620.41;5032977;28;20029;-80
2022/12/14 04:36:17;;;;;;;3.65;2.10;;;;;;;-2.16;100.00;99612.66;5030461;28;20069;-80
2022/12/14 04:38:47;;;;;;;10.57;3.75;;;;;;;-2.16;100.00;99611.81;4997635;28;20095;-80
2022/12/14 04:41:19;;;;;;;5.03;2.67;;;;;;;-2.18;100.00;99618.84;5007698;28;20033;-80
2022/12/14 04:43:49;;;;;;;3.65;2.10;;;;;;;-2.17;100.00;99605.81;5015570;28;20091;-81
2022/12/14 04:46:24;;;;;;;3.78;1.63;;;;;;;-2.17;100.00;99603.22;5031080;28;20033;-80
2022/12/14 04:48:55;;;;;;;4.38;2.80;;;;;;;-2.18;100.00;99606.72;5014729;28;20445;-80
2022/12/14 04:51:35;;;;;;;5.03;3.17;;;;;;;-2.12;100.00;99606.38;5028174;28;20112;-81
2022/12/14 04:54:09;;;;;;;2.08;1.63;;;;;;;-2.17;100.00;99605.81;5023590;28;20501;-80
2022/12/14 04:56:42;;;;;;;4.10;1.27;;;;;;;-2.12;100.00;99605.56;5030224;28;20511;-79
2022/12/14 04:59:08;;;;;;;3.63;1.88;;;;;;;-2.11;100.00;99615.00;5013104;28;20124;-80
2022/12/14 05:01:57;;;;;;;3.83;1.67;;;;;;;-2.10;100.00;99615.84;5013305;28;20041;-79
2022/12/14 05:04:53;;;;;;;8.82;2.90;;;;;;;-2.08;100.00;99625.19;5019331;28;20029;-80
2022/12/14 05:07:38;;;;;;;2.10;1.67;;;;;;;-2.14;100.00;99628.94;5029184;28;20049;-80
2022/12/14 05:10:42;;;;;;;3.28;1.70;;;;;;;-2.08;100.00;99626.91;5029496;28;20076;-80
2022/12/14 05:13:24;;;;;;;4.47;2.55;;;;;;;-2.10;100.00;99650.31;5023917;28;20525;-80
2022/12/14 05:15:55;;;;;;;2.28;1.83;;;;;;;-2.07;100.00;99638.97;5022956;28;20541;-80
2022/12/14 05:18:22;;;;;;;4.32;1.67;;;;;;;-2.11;100.00;99640.88;5020823;28;20159;-80
2022/12/14 05:20:49;;;;;;;1.40;1.17;;;;;;;-2.13;100.00;99651.31;5033621;28;20040;-80
2022/12/14 05:23:15;;;;;;;4.55;1.83;;;;;;;-2.13;100.00;99658.25;5007160;28;20034;-80
2022/12/14 05:25:42;;;;;;;3.65;1.67;;;;;;;-2.13;100.00;99653.91;5026271;28;20121;-80
2022/12/14 05:28:11;;;;;;;3.38;1.85;;;;;;;-2.14;100.00;99654.84;5028715;28;20444;-80
2022/12/14 05:30:37;;;;;;;2.60;1.30;;;;;;;-2.18;100.00;99655.91;5012804;28;20147;-80
2022/12/14 05:33:03;;;;;;;3.03;1.63;;;;;;;-2.15;100.00;99650.56;5022313;28;20470;-80
2022/12/14 05:35:29;;;;;;;2.83;1.25;;;;;;;-2.18;100.00;99647.31;5020260;28;20037;-80
2022/12/14 05:37:55;;;;;;;1.50;1.23;;;;;;;-2.20;100.00;99647.41;5046559;28;20094;-80
2022/12/14 05:40:21;;;;;;;1.52;1.17;;;;;;;-2.18;100.00;99642.13;5029929;28;20095;-80
2022/12/14 05:42:46;;;;;;;1.52;1.15;;;;;;;-2.18;100.00;99640.38;5033762;28;20033;-80
2022/12/14 05:45:13;;;;;;;1.63;1.00;;;;;;;-2.20;100.00;99643.97;5029036;28;20478;-80
2022/12/14 05:47:39;;;;;;;2.95;1.20;;;;;;;-2.20;100.00;99649.16;5036590;28;20102;-80
2022/12/14 05:50:05;;;;;;;3.67;2.15;;;;;;;-2.20;100.00;99651.75;5029035;28;20044;-80
2022/12/14 05:52:31;;;;;;;1.83;1.20;;;;;;;-2.23;100.00;99657.94;5016211;28;20045;-80
2022/12/14 05:54:57;;;;;;;1.75;1.00;;;;;;;-2.22;100.00;99658.75;5012533;28;20394;-80
2022/12/14 05:57:23;;;;;;;4.30;1.58;;;;;;;-2.23;100.00;99657.94;5033149;28;20473;-80
2022/12/14 05:59:48;;;;;;;1.25;1.10;;;;;;;-2.23;100.00;99657.06;5022755;28;20485;-80
2022/12/14 06:02:14;;;;;;;2.75;1.63;;;;;;;-2.23;100.00;99657.94;5011532;28;20041;-80
2022/12/14 06:04:40;;;;;;;4.40;1.80;;;;;;;-2.26;100.00;99651.13;5027473;28;20040;-80
2022/12/14 06:07:10;;;;;;;5.50;1.75;;;;;;;-2.26;100.00;99650.28;5017764;28;20072;-80
2022/12/14 06:09:36;;;;;;;3.65;1.27;;;;;;;-2.28;100.00;99665.09;5044418;28;20048;-80
2022/12/14 06:12:02;;;;;;;3.60;1.58;;;;;;;-2.26;100.00;99663.22;5027649;28;20045;-80
2022/12/14 06:14:27;;;;;;;2.63;1.15;;;;;;;-2.29;100.00;99653.03;5024296;28;20090;-80
2022/12/14 06:16:54;;;;;;;2.95;1.35;;;;;;;-2.29;100.00;99661.66;5028586;28;20139;-80
2022/12/14 06:19:20;;;;;;;5.50;1.00;;;;;;;-2.31;100.00;99654.91;5019659;28;20045;-80
2022/12/14 06:21:45;;;;;;;0.52;0.50;;;;;;;-2.31;100.00;99665.25;5010257;28;20037;-80
2022/12/14 06:24:12;;;;;;;2.80;1.67;;;;;;;-2.31;100.00;99662.66;5045226;28;20474;-80
2022/12/14 06:26:41;;;;;;;4.30;1.63;;;;;;;-2.30;100.00;99660.00;5025516;28;20474;-80
2022/12/14 06:29:14;;;;;;;3.08;1.20;;;;;;;-2.26;100.00;99666.66;5025063;28;20029;-80
2022/12/14 06:31:40;;;;;;;2.90;1.23;;;;;;;-2.25;100.00;99670.94;5026268;28;20048;-80
2022/12/14 06:34:06;;;;;;;2.55;1.38;;;;;;;-2.23;100.00;99675.19;5022551;28;20033;-80
2022/12/14 06:36:34;;;;;;;3.47;1.00;;;;;;;-2.23;100.00;99676.03;5028552;28;20042;-80
2022/12/14 06:39:04;;;;;;;3.45;1.70;;;;;;;-2.13;100.00;99679.81;5024457;28;20449;-80
2022/12/14 06:41:30;;;;;;;2.38;0.90;;;;;;;-2.21;100.00;99674.19;5034912;28;20072;-80
2022/12/14 06:43:56;;;;;;;3.28;1.13;;;;;;;-2.15;100.00;99675.63;5033754;28;20060;-80
2022/12/14 06:46:22;;;;;;;5.55;1.23;;;;;;;-2.12;100.00;99675.47;5016059;28;20061;-80
2022/12/14 06:48:50;;;;;;;2.83;1.35;;;;;;;-2.11;100.00;99674.53;5032606;28;20108;-80
2022/12/14 06:51:16;;;;;;;1.25;0.82;;;;;;;-2.15;100.00;99668.69;5046200;28;20087;-79
2022/12/14 06:53:42;;;;;;;3.17;1.50;;;;;;;-2.13;100.00;99668.59;5028571;28;20139;-79
2022/12/14 06:56:10;;;;;;;2.00;0.85;;;;;;;-2.16;100.00;99666.19;5030882;28;20378;-79
2022/12/14 06:58:38;;;;;;;3.22;1.30;;;;;;;-2.15;100.00;99668.69;5032426;28;20103;-78
2022/12/14 07:01:07;;;;;;;2.05;1.25;;;;;;;-2.12;100.00;99660.75;5014319;28;20033;-79
2022/12/14 07:03:33;;;;;;;4.70;1.40;;;;;;;-2.12;100.00;99665.13;5013200;28;20398;-79
2022/12/14 07:06:01;;;;;;;2.35;1.13;;;;;;;-2.16;100.00;99669.63;5025001;28;20133;-79
2022/12/14 07:08:28;;;;;;;7.85;1.27;;;;;;;-2.08;100.00;99671.78;5035199;28;20099;-78
2022/12/14 07:10:54;;;;;;;6.93;2.03;;;;;;;-2.08;100.00;99676.13;5031347;28;20473;-79
2022/12/14 07:13:21;;;;;;;0.50;0.50;;;;;;;-2.10;100.00;99676.22;5027110;28;20509;-79
2022/12/14 07:15:55;;;;;;;1.13;0.57;;;;;;;-2.10;100.00;99675.38;5030498;28;20069;-79
2022/12/14 07:18:22;;;;;;;5.22;1.35;;;;;;;-2.10;100.00;99683.16;5015430;28;20041;-79
2022/12/14 07:21:01;;;;;;;2.67;1.05;;;;;;;-2.08;100.00;99692.50;5030546;28;20033;-79
2022/12/14 07:23:28;;;;;;;5.88;1.15;;;;;;;-2.07;100.00;99695.94;5043904;28;20044;-80
2022/12/14 07:26:03;;;;;;;7.18;1.65;;;;;;;-2.08;100.00;99702.03;5029924;28;20109;-79
2022/12/14 07:28:29;;;;;;;2.78;1.65;;;;;;;-2.17;100.00;99706.78;5027661;28;20065;-80
2022/12/14 07:30:55;;;;;;;3.50;1.40;;;;;;;-2.19;100.00;99708.63;5011201;28;20063;-79
2022/12/14 07:33:21;;;;;;;6.05;2.13;;;;;;;-2.22;100.00;99719.13;5021447;28;20108;-78
2022/12/14 07:35:47;;;;;;;2.97;1.83;;;;;;;-2.22;100.00;99721.72;5012802;28;20501;-78
2022/12/14 07:38:13;;;;;;;3.63;1.10;;;;;;;-2.29;100.00;99728.13;5029421;28;20394;-78
2022/12/14 07:40:38;;;;;;;3.47;1.75;;;;;;;-2.28;100.00;99728.03;5008820;28;20049;-79
2022/12/14 07:43:04;;;;;;;2.10;1.35;;;;;;;-2.30;100.00;99729.03;5011832;28;20048;-79
2022/12/14 07:45:30;;;;;;;5.68;1.85;;;;;;;-2.34;100.00;99730.13;5042576;28;20045;-79
2022/12/14 07:47:56;;;;;;;3.10;1.65;;;;;;;-2.38;100.00;99732.03;5023122;28;20040;-79
2022/12/14 07:50:22;;;;;;;2.03;1.08;;;;;;;-2.46;100.00;99736.75;5024171;28;20044;-79
2022/12/14 07:52:47;;;;;;;5.25;1.10;;;;;;;-2.51;100.00;99724.03;5010254;28;20037;-79
2022/12/14 07:55:13;;;;;;;2.90;2.20;;;;;;;-2.60;100.00;99730.53;5027073;28;20092;-79
2022/12/14 07:57:39;;;;;;;0.85;0.63;;;;;;;-2.63;100.00;99736.69;5027538;28;20049;-79
2022/12/14 08:00:05;;;;;;;0.68;0.57;;;;;;;-2.63;100.00;99736.69;5027109;28;20129;-80
2022/12/14 08:02:37;;;;;;;1.02;0.93;;;;;;;-2.63;100.00;99748.81;5026020;28;20525;-79
2022/12/14 08:05:03;;;;;;;4.03;1.17;;;;;;;-2.64;100.00;99749.69;5026858;28;20038;-79
2022/12/14 08:07:30;;;;;;;4.57;1.50;;;;;;;-2.67;100.00;99750.69;4994738;28;20032;-79
2022/12/14 08:09:56;;;;;;;4.35;1.30;;;;;;;-2.63;100.00;99757.38;5018085;28;21325;-80
2022/12/14 08:12:22;;;;;;;4.65;1.40;;;;;;;-2.62;100.00;99761.66;5024586;28;20048;-79
2022/12/14 08:14:48;;;;;;;6.68;1.38;;;;;;;-2.62;100.00;99763.41;5006786;28;20037;-80
2022/12/14 08:17:14;;;;;;;10.00;1.67;;;;;;;-2.64;100.00;99768.66;5011923;28;20372;-79
2022/12/14 08:19:40;;;;;;;2.50;1.00;;;;;;;-2.63;100.00;99774.69;5012980;28;20065;-80
2022/12/14 08:22:05;;;;;;;4.18;1.60;;;;;;;-2.65;100.00;99785.09;5025937;28;20072;-79
2022/12/14 08:24:31;;;;;;;3.88;1.80;;;;;;;-2.70;100.00;99779.31;5045508;28;20121;-79
2022/12/14 08:26:57;;;;;;;10.85;1.92;;;;;;;-2.64;100.00;99793.69;5015215;28;20033;-79
2022/12/14 08:29:23;;;;;;;5.55;1.42;;;;;;;-2.67;100.00;99796.41;5024021;28;20045;-79
2022/12/14 08:31:49;;;;;;;8.38;2.50;;;;;;;-2.66;100.00;99798.13;5007231;28;20065;-79
2022/12/14 08:34:21;;;;;;;10.07;3.25;;;;;;;-2.71;100.00;99793.16;5023697;28;20037;-79
2022/12/14 08:36:47;;;;;;;6.85;2.75;;;;;;;-2.73;100.00;99797.56;5008881;28;20481;-79
2022/12/14 08:39:13;;;;;;;8.75;3.42;;;;;;;-2.75;100.00;99799.38;5042236;28;20037;-79
2022/12/14 08:41:38;;;;;;;8.02;2.95;;;;;;;-2.78;100.00;99802.13;5008363;28;20076;-80
2022/12/14 08:44:05;;;;;;;5.03;1.55;;;;;;;-2.82;100.00;99801.44;5034592;28;20414;-79
2022/12/14 08:46:33;;;;;;;2.45;0.90;;;;;;;-2.79;100.00;99808.22;5029722;28;20029;-80
2022/12/14 08:48:59;;;;;;;6.60;1.40;;;;;;;-2.82;100.00;99809.19;5028101;28;20674;-79
2022/12/14 08:51:26;;;;;;;1.05;0.93;;;;;;;-2.80;100.00;99817.72;5008966;28;20033;-80
2022/12/14 08:53:53;;;;;;;5.30;1.00;;;;;;;-2.79;100.00;99819.41;5020933;28;20053;-79
2022/12/14 08:56:22;;;;;;;3.35;1.30;;;;;;;-2.78;100.00;99822.81;5010328;28;20029;-79
2022/12/14 08:58:47;;;;;;;13.23;1.75;;;;;;;-2.77;100.00;99825.31;5010164;28;20087;-79
2022/12/14 09:01:16;;;;;;;3.90;0.85;;;;;;;-2.76;100.00;99828.75;5025256;28;20485;-80
2022/12/14 09:03:43;;;;;;;3.45;1.02;;;;;;;-2.75;100.00;99833.00;5006251;28;20329;-80
2022/12/14 09:06:13;;;;;;;1.95;1.08;;;;;;;-2.75;100.00;99828.69;5004245;28;20026;-80
2022/12/14 09:08:40;;;;;;;2.72;0.93;;;;;;;-2.74;100.00;99834.72;5043641;28;20037;-79
2022/12/14 09:11:11;;;;;;;3.30;0.75;;;;;;;-2.75;100.00;99833.00;5013140;28;20099;-79
2022/12/14 09:13:38;;;;;;;0.80;0.45;;;;;;;-2.75;100.00;99838.19;5009351;28;20075;-80
2022/12/14 09:16:09;;;;;;;3.70;1.33;;;;;;;-2.70;100.00;99841.41;5025141;28;20052;-79
2022/12/14 09:18:35;;;;;;;3.30;1.05;;;;;;;-2.67;100.00;99840.41;5031819;28;20120;-79
2022/12/14 09:21:01;;;;;;;2.03;0.80;;;;;;;-2.66;100.00;99842.09;5027622;28;20144;-79
2022/12/14 09:23:28;;;;;;;6.00;3.60;;;;;;;-2.60;100.00;99848.72;5006373;28;20044;-80
2022/12/14 09:26:03;;;;;;;2.55;0.98;;;;;;;-2.58;100.00;99849.50;5025211;28;20080;-79
2022/12/14 09:28:30;;;;;;;1.60;0.85;;;;;;;-2.55;100.00;99860.50;5012251;28;20036;-80
2022/12/14 09:30:58;;;;;;;0.75;0.60;;;;;;;-2.50;100.00;99865.50;5028337;28;20079;-80
2022/12/14 09:33:26;;;;;;;2.67;0.95;;;;;;;-2.49;100.00;99864.56;5036411;28;20133;-80
2022/12/14 09:35:52;;;;;;;8.48;1.20;;;;;;;-2.46;100.00;99867.00;5001737;28;20047;-80
2022/12/14 09:38:19;;;;;;;3.97;1.70;;;;;;;-2.42;100.00;99870.28;5021934;28;20042;-80
2022/12/14 09:40:55;;;;;;;2.78;1.13;;;;;;;-2.38;100.00;99874.38;5042647;28;20041;-79
2022/12/14 09:43:31;;;;;;;3.42;1.50;;;;;;;-2.32;100.00;99871.50;5043859;28;20033;-79
2022/12/14 09:46:19;;;;;;;3.60;1.65;;;;;;;-2.27;100.00;99874.72;5020863;28;20036;-80
2022/12/14 09:48:46;;;;;;;5.05;1.23;;;;;;;-2.22;100.00;99876.22;5025807;28;20040;-79
2022/12/14 09:51:15;;;;;;;6.22;2.08;;;;;;;-2.14;100.00;99884.44;5005806;28;20395;-80
2022/12/14 09:53:44;;;;;;;2.85;1.48;;;;;;;-2.10;100.00;99883.38;5022622;28;20037;-80
2022/12/14 09:56:18;;;;;;;4.90;1.30;;;;;;;-2.04;100.00;99884.84;5010838;28;20087;-79
2022/12/14 09:58:56;;;;;;;2.25;1.15;;;;;;;-2.00;100.00;99894.13;5028827;28;20045;-79
2022/12/14 10:01:21;;;;;;;4.40;1.80;;;;;;;-2.01;100.00;99895.03;5015825;28;20069;-79
2022/12/14 10:04:24;;;;;;;8.35;1.77;;;;;;;-1.96;100.00;99897.41;5023566;28;20107;-79
2022/12/14 10:07:23;;;;;;;4.35;2.08;;;;;;;-1.88;100.00;99895.25;5023358;28;21571;-80
2022/12/14 10:10:18;;;;;;;10.35;2.20;;;;;;;-1.87;100.00;99904.69;5013885;28;20033;-80
2022/12/14 10:12:55;;;;;;;8.60;2.90;;;;;;;-1.80;100.00;99907.81;5035855;28;20136;-79
2022/12/14 10:15:41;;;;;;;8.13;3.83;;;;;;;-1.77;100.00;99910.25;5022327;28;20034;-79
2022/12/14 10:18:13;;;;;;;;;;;;;;;-1.78;100.00;99918.94;5026351;28;20045;-79
2022/12/14 10:20:54;;;;;;;10.35;5.05;;;;;;;-1.75;100.00;99921.38;5026525;28;19913;-80
2022/12/14 10:23:23;;;;;;;11.93;5.43;;;;;;;-1.73;100.00;99916.94;4994399;28;20140;-80
2022/12/14 10:26:07;;;;;;;10.93;6.53;;;;;;;-1.70;100.00;99923.72;5030752;28;20029;-79
2022/12/14 10:28:52;;;;;;;15.10;6.45;;;;;;;-1.74;100.00;99928.25;5023923;28;20433;-79
2022/12/14 10:31:47;;;;;;;12.13;5.82;;;;;;;-1.68;100.00;99927.09;5027481;28;20460;-79
2022/12/14 10:34:22;;;;;;;11.40;5.10;;;;;;;-1.68;100.00;99932.25;5019985;28;20699;-80
2022/12/14 10:37:09;;;;;;;8.57;3.72;;;;;;;-1.65;100.00;99942.47;5024072;28;20037;-79
2022/12/14 10:39:34;;;;;;;;;;;;;;;-1.69;100.00;99940.97;5029031;28;20041;-80
2022/12/14 10:42:06;;;;;;;9.23;3.10;;;;;;;-1.61;100.00;99938.81;5029574;28;19967;-80
2022/12/14 10:45:09;;;;;;;11.32;3.55;;;;;;;-1.56;100.00;99944.59;5025187;28;20049;-79
2022/12/14 10:47:43;;;;;;;10.15;3.20;;;;;;;-1.54;100.00;99947.94;5016148;28;20046;-79
2022/12/14 10:50:28;;;;;;;8.02;3.65;;;;;;;-1.46;100.00;99952.75;5032312;28;20060;-80
2022/12/14 10:52:55;;;;;;;9.20;4.35;;;;;;;-1.40;100.00;99951.59;5027432;28;20029;-80
2022/12/14 10:55:37;;;;;;;8.50;3.97;;;;;;;-1.32;100.00;99964.16;5009690;28;20064;-79
2022/12/14 10:58:03;;;;;;;12.05;5.65;;;;;;;-1.34;100.00;99966.84;5028334;28;20038;-79
2022/12/14 11:00:28;;;;;;;8.80;4.90;;;;;;;-1.26;100.00;99963.84;5025980;28;20478;-79
2022/12/14 11:02:56;;;;;;;9.45;4.60;;;;;;;-1.20;100.00;99966.13;5027115;28;20507;-80
2022/12/14 11:05:28;;;;;;;11.20;3.97;;;;;;;-1.12;100.00;99965.72;5021392;28;20502;-79
2022/12/14 11:07:54;;;;;;;8.18;3.47;;;;;;;-1.07;100.00;99966.31;5030226;28;20125;-79
2022/12/14 11:10:21;;;;;;;10.35;2.70;;;;;;;-1.07;100.00;99966.31;5028664;28;20120;-79
2022/12/14 11:13:11;;;;;;;8.85;3.97;;;;;;;-1.03;100.00;99972.16;5027044;28;20045;-79
2022/12/14 11:15:41;;;;;;;11.15;5.00;;;;;;;-0.97;100.00;99973.59;5024684;28;20340;-80
2022/12/14 11:18:10;;;;;;;10.55;3.67;;;;;;;-0.87;100.00;99969.59;5020918;28;20041;-80
2022/12/14 11:20:47;;;;;;;8.57;3.20;;;;;;;-0.90;100.00;99967.16;5004366;28;20052;-79
2022/12/14 11:23:40;;;;;;;17.02;3.70;;;;;;;-0.95;100.00;99962.22;5022743;28;20037;-78
2022/12/14 11:26:15;;;;;;;10.13;5.05;;;;;;;-0.91;100.00;99968.09;5029565;28;20042;-79
2022/12/14 11:28:56;;;;;;;9.77;3.97;;;;;;;-0.83;100.00;99978.06;5009140;28;20037;-80
2022/12/14 11:31:31;;;;;;;10.63;3.45;;;;;;;-0.81;100.00;99974.44;5043568;28;20040;-80
2022/12/14 11:33:58;;;;;;;10.65;4.03;;;;;;;-0.75;100.00;99973.28;5030746;28;20106;-78
2022/12/14 11:36:41;;;;;;;3.72;2.10;;;;;;;-0.65;100.00;99968.41;5026813;28;20363;-80
2022/12/14 11:39:13;;;;;;;6.60;3.88;;;;;;;-0.60;100.00;99966.41;5026836;28;20034;-79
2022/12/14 11:42:01;;;;;;;5.95;3.00;;;;;;;-0.47;100.00;99971.78;5016414;28;20096;-79
2022/12/14 11:44:36;;;;;;;6.93;3.40;;;;;;;-0.38;100.00;99970.41;5032242;28;20029;-80
2022/12/14 11:47:07;;;;;;;3.03;1.98;;;;;;;-0.33;100.00;99959.78;4999476;28;20033;-80
2022/12/14 11:49:41;;;;;;;5.20;2.53;;;;;;;-0.27;100.00;99957.69;5022564;28;20048;-80
2022/12/14 11:52:07;;;;;;;6.60;2.58;;;;;;;-0.19;100.00;99966.81;5024880;28;20029;-80
2022/12/14 11:54:36;;;;;;;9.13;2.78;;;;;;;-0.15;100.00;99953.56;5028819;28;20048;-80